AEE633 EGPH-LGAV
Flight info
| Callsign | AEE633 |
|---|---|
| Flight time | N/A |
| Altitude | 35000 |
| Route | TLA Y96 OTBUN DCT GODOS DCT PAM DCT DOJOH/N0445F370 DCT DODEN DCT NEGIX DCT DINKU DCT BESNI DCT LATLO DCT OBEDI DCT OLEZE DCT TEBLI DCT BOSNA DCT MODRA DCT MEDUX UM867 KOGAT DCT TALAS DCT SIGFO UM749 ROPOX |
| Aircraft | A320/M-SDE3FGHIRWY/LB1 |
Departure
| Time | 2026-05-01 12:16 |
|---|---|
| Airport | Edinburgh Airport (EGPH) |
Arrival
| Time | N/A |
|---|---|
| Airport | Athens Eleftherios Venizelos International Airport (LGAV) |
| Time | Latitude | Longitude | Altitude | Speed | Heading |
|---|---|---|---|---|---|
| 2026-05-01 11:58 | 55.94940 | -3.36356 | 117 ft | 0 kts | 148° |
| 2026-05-01 12:09 | 55.94949 | -3.36366 | 113 ft | 2 kts | 146° |
| 2026-05-01 12:09 | 55.94962 | -3.36382 | 113 ft | 2 kts | 144° |
| 2026-05-01 12:09 | 55.94975 | -3.36399 | 115 ft | 2 kts | 139° |
| 2026-05-01 12:09 | 55.94987 | -3.36419 | 112 ft | 2 kts | 125° |
| 2026-05-01 12:10 | 55.94994 | -3.36445 | 113 ft | 2 kts | 78° |
| 2026-05-01 12:10 | 55.94990 | -3.36468 | 114 ft | 0 kts | 62° |
| 2026-05-01 12:12 | 55.94992 | -3.36461 | 114 ft | 2 kts | 62° |
| 2026-05-01 12:12 | 55.95009 | -3.36413 | 114 ft | 7 kts | 53° |
| 2026-05-01 12:13 | 55.95064 | -3.36399 | 114 ft | 10 kts | 359° |
| 2026-05-01 12:13 | 55.95126 | -3.36306 | 115 ft | 14 kts | 58° |
| 2026-05-01 12:13 | 55.95183 | -3.36134 | 111 ft | 18 kts | 59° |
| 2026-05-01 12:13 | 55.95250 | -3.35940 | 114 ft | 17 kts | 58° |
| 2026-05-01 12:14 | 55.95316 | -3.35746 | 116 ft | 19 kts | 58° |
| 2026-05-01 12:14 | 55.95372 | -3.35581 | 113 ft | 9 kts | 59° |
| 2026-05-01 12:14 | 55.95412 | -3.35463 | 112 ft | 13 kts | 54° |
| 2026-05-01 12:14 | 55.95481 | -3.35433 | 116 ft | 9 kts | 326° |
| 2026-05-01 12:15 | 55.95499 | -3.35453 | 114 ft | 5 kts | 326° |
| 2026-05-01 12:15 | 55.95545 | -3.35514 | 113 ft | 12 kts | 312° |
| 2026-05-01 12:15 | 55.95534 | -3.35671 | 113 ft | 16 kts | 237° |
| 2026-05-01 12:15 | 55.95501 | -3.35769 | 113 ft | 11 kts | 239° |
| 2026-05-01 12:16 | 55.95366 | -3.36168 | 108 ft | 72 kts | 238° |
| 2026-05-01 12:16 | 55.95001 | -3.37247 | 112 ft | 128 kts | 239° |
| 2026-05-01 12:16 | 55.94479 | -3.38798 | 353 ft | 150 kts | 239° |
| 2026-05-01 12:16 | 55.93934 | -3.40387 | 964 ft | 150 kts | 237° |
| 2026-05-01 12:17 | 55.93383 | -3.41972 | 1636 ft | 150 kts | 236° |
| 2026-05-01 12:17 | 55.92824 | -3.43582 | 2085 ft | 159 kts | 235° |
| 2026-05-01 12:17 | 55.92200 | -3.45372 | 2293 ft | 182 kts | 235° |
| 2026-05-01 12:17 | 55.91486 | -3.47411 | 2557 ft | 206 kts | 235° |
| 2026-05-01 12:18 | 55.90684 | -3.49717 | 2925 ft | 231 kts | 236° |
| 2026-05-01 12:18 | 55.89814 | -3.52278 | 3497 ft | 249 kts | 238° |
| 2026-05-01 12:18 | 55.88936 | -3.54973 | 4419 ft | 253 kts | 238° |
| 2026-05-01 12:18 | 55.87885 | -3.57471 | 5366 ft | 254 kts | 217° |
| 2026-05-01 12:19 | 55.86258 | -3.58682 | 5847 ft | 258 kts | 185° |
| 2026-05-01 12:19 | 55.84515 | -3.58023 | 5981 ft | 263 kts | 152° |
| 2026-05-01 12:19 | 55.83259 | -3.55693 | 6006 ft | 271 kts | 124° |
| 2026-05-01 12:19 | 55.82204 | -3.52942 | 6001 ft | 267 kts | 140° |
| 2026-05-01 12:20 | 55.80664 | -3.51212 | 6010 ft | 262 kts | 160° |
| 2026-05-01 12:20 | 55.78939 | -3.50186 | 6008 ft | 261 kts | 167° |
| 2026-05-01 12:20 | 55.77177 | -3.49425 | 6012 ft | 260 kts | 169° |
| 2026-05-01 12:20 | 55.75413 | -3.48700 | 6008 ft | 260 kts | 169° |
| 2026-05-01 12:21 | 55.73659 | -3.47926 | 6001 ft | 260 kts | 168° |
| 2026-05-01 12:21 | 55.71912 | -3.47091 | 6007 ft | 259 kts | 167° |
| 2026-05-01 12:21 | 55.70180 | -3.46212 | 6000 ft | 259 kts | 166° |
| 2026-05-01 12:21 | 55.68455 | -3.45304 | 6009 ft | 259 kts | 166° |
| 2026-05-01 12:22 | 55.66733 | -3.44381 | 6002 ft | 259 kts | 165° |
| 2026-05-01 12:22 | 55.65591 | -3.43765 | 6002 ft | 259 kts | 165° |
| 2026-05-01 12:22 | 55.63292 | -3.42522 | 6003 ft | 259 kts | 165° |
| 2026-05-01 12:22 | 55.62153 | -3.41908 | 6004 ft | 258 kts | 165° |
| 2026-05-01 12:23 | 55.60431 | -3.40975 | 5999 ft | 259 kts | 165° |
| 2026-05-01 12:23 | 55.58707 | -3.40041 | 6002 ft | 259 kts | 165° |
| 2026-05-01 12:23 | 55.56985 | -3.39111 | 6004 ft | 259 kts | 165° |
| 2026-05-01 12:23 | 55.55262 | -3.38180 | 5998 ft | 260 kts | 165° |
| 2026-05-01 12:24 | 55.53531 | -3.37242 | 6004 ft | 259 kts | 165° |
| 2026-05-01 12:24 | 55.51838 | -3.36115 | 5996 ft | 261 kts | 152° |
| 2026-05-01 12:24 | 55.50423 | -3.34063 | 6001 ft | 268 kts | 132° |
| 2026-05-01 12:24 | 55.49522 | -3.31104 | 6462 ft | 282 kts | 110° |
| 2026-05-01 12:25 | 55.49118 | -3.27695 | 7326 ft | 285 kts | 105° |
| 2026-05-01 12:25 | 55.48388 | -3.20817 | 8949 ft | 287 kts | 105° |
| 2026-05-01 12:25 | 55.48021 | -3.17359 | 9777 ft | 287 kts | 106° |
| 2026-05-01 12:26 | 55.47648 | -3.13880 | 10440 ft | 294 kts | 106° |
| 2026-05-01 12:26 | 55.46808 | -3.06244 | 10745 ft | 340 kts | 105° |
| 2026-05-01 12:26 | 55.46340 | -3.02080 | 11156 ft | 349 kts | 108° |
| 2026-05-01 12:27 | 55.45557 | -2.98039 | 11748 ft | 348 kts | 118° |
| 2026-05-01 12:27 | 55.43225 | -2.90524 | 12993 ft | 353 kts | 123° |
| 2026-05-01 12:28 | 55.40811 | -2.82963 | 14192 ft | 360 kts | 123° |
| 2026-05-01 12:28 | 55.39574 | -2.79106 | 14722 ft | 363 kts | 123° |
| 2026-05-01 12:28 | 55.37066 | -2.71300 | 15755 ft | 369 kts | 123° |
| 2026-05-01 12:29 | 55.35797 | -2.67352 | 16270 ft | 372 kts | 123° |
| 2026-05-01 12:29 | 55.34517 | -2.63368 | 16782 ft | 375 kts | 124° |
| 2026-05-01 12:29 | 55.31929 | -2.55324 | 17824 ft | 381 kts | 124° |
| 2026-05-01 12:30 | 55.29290 | -2.47162 | 18816 ft | 388 kts | 124° |
| 2026-05-01 12:30 | 55.27952 | -2.43030 | 19296 ft | 390 kts | 124° |
| 2026-05-01 12:30 | 55.26629 | -2.38855 | 19779 ft | 394 kts | 123° |
| 2026-05-01 12:31 | 55.25094 | -2.34923 | 20258 ft | 389 kts | 138° |
| 2026-05-01 12:31 | 55.23001 | -2.31988 | 20710 ft | 386 kts | 148° |
| 2026-05-01 12:31 | 55.20967 | -2.28878 | 21153 ft | 394 kts | 133° |
| 2026-05-01 12:31 | 55.19397 | -2.24895 | 21584 ft | 400 kts | 126° |
| 2026-05-01 12:32 | 55.17899 | -2.20770 | 22020 ft | 403 kts | 126° |
| 2026-05-01 12:32 | 55.14905 | -2.12468 | 22860 ft | 407 kts | 126° |
| 2026-05-01 12:32 | 55.13393 | -2.08266 | 23288 ft | 409 kts | 126° |
| 2026-05-01 12:33 | 55.11872 | -2.04048 | 23697 ft | 411 kts | 126° |
| 2026-05-01 12:33 | 55.10337 | -1.99829 | 24031 ft | 413 kts | 128° |
| 2026-05-01 12:33 | 55.08713 | -1.95762 | 24361 ft | 414 kts | 129° |
| 2026-05-01 12:33 | 55.07035 | -1.91652 | 24689 ft | 416 kts | 129° |
| 2026-05-01 12:34 | 55.05349 | -1.87539 | 25006 ft | 418 kts | 129° |
| 2026-05-01 12:34 | 55.03647 | -1.83404 | 25118 ft | 419 kts | 129° |
| 2026-05-01 12:34 | 55.01948 | -1.79281 | 25139 ft | 419 kts | 129° |
| 2026-05-01 12:34 | 55.00247 | -1.75159 | 25138 ft | 419 kts | 129° |
| 2026-05-01 12:35 | 54.98547 | -1.71041 | 25139 ft | 418 kts | 129° |
| 2026-05-01 12:35 | 54.96847 | -1.66930 | 25139 ft | 417 kts | 129° |
| 2026-05-01 12:35 | 54.95154 | -1.62836 | 25122 ft | 417 kts | 129° |
| 2026-05-01 12:35 | 54.93468 | -1.58722 | 25239 ft | 418 kts | 129° |
| 2026-05-01 12:36 | 54.91779 | -1.54598 | 25622 ft | 420 kts | 129° |
| 2026-05-01 12:36 | 54.90078 | -1.50449 | 25980 ft | 422 kts | 129° |
| 2026-05-01 12:36 | 54.88370 | -1.46287 | 26320 ft | 424 kts | 129° |
| 2026-05-01 12:36 | 54.86654 | -1.42112 | 26667 ft | 426 kts | 129° |
| 2026-05-01 12:37 | 54.84925 | -1.37913 | 27003 ft | 428 kts | 129° |
| 2026-05-01 12:37 | 54.83191 | -1.33702 | 27335 ft | 430 kts | 129° |
| 2026-05-01 12:37 | 54.81450 | -1.29478 | 27676 ft | 432 kts | 129° |
| 2026-05-01 12:37 | 54.79707 | -1.25255 | 28135 ft | 430 kts | 129° |
| 2026-05-01 12:38 | 54.77967 | -1.21038 | 28606 ft | 429 kts | 129° |
| 2026-05-01 12:38 | 54.76233 | -1.16838 | 29060 ft | 428 kts | 129° |
| 2026-05-01 12:38 | 54.74503 | -1.12649 | 29512 ft | 427 kts | 129° |
| 2026-05-01 12:38 | 54.72781 | -1.08489 | 30037 ft | 424 kts | 129° |
| 2026-05-01 12:39 | 54.71070 | -1.04327 | 30479 ft | 423 kts | 129° |
| 2026-05-01 12:39 | 54.69376 | -1.00177 | 30880 ft | 422 kts | 129° |
| 2026-05-01 12:39 | 54.67686 | -0.96038 | 31283 ft | 421 kts | 129° |
| 2026-05-01 12:39 | 54.65999 | -0.91913 | 31674 ft | 420 kts | 129° |
| 2026-05-01 12:40 | 54.64314 | -0.87803 | 32075 ft | 419 kts | 129° |
| 2026-05-01 12:40 | 54.62631 | -0.83701 | 32473 ft | 418 kts | 130° |
| 2026-05-01 12:40 | 54.60946 | -0.79605 | 32878 ft | 417 kts | 130° |
| 2026-05-01 12:40 | 54.59265 | -0.75523 | 33278 ft | 417 kts | 130° |
| 2026-05-01 12:41 | 54.57610 | -0.71512 | 33663 ft | 416 kts | 130° |
| 2026-05-01 12:41 | 54.55931 | -0.67449 | 34059 ft | 415 kts | 130° |
| 2026-05-01 12:41 | 54.54257 | -0.63405 | 34402 ft | 414 kts | 130° |
| 2026-05-01 12:41 | 54.52583 | -0.59373 | 34680 ft | 415 kts | 130° |
| 2026-05-01 12:42 | 54.51052 | -0.55140 | 34949 ft | 419 kts | 121° |
| 2026-05-01 12:42 | 54.49735 | -0.50647 | 35126 ft | 421 kts | 121° |
| 2026-05-01 12:42 | 54.47070 | -0.41550 | 35184 ft | 431 kts | 121° |
| 2026-05-01 12:43 | 54.44358 | -0.32292 | 35186 ft | 434 kts | 121° |
| 2026-05-01 12:43 | 54.41635 | -0.23032 | 35186 ft | 435 kts | 121° |
| 2026-05-01 12:44 | 54.38897 | -0.13782 | 35181 ft | 435 kts | 121° |
| 2026-05-01 12:45 | 54.33399 | 0.04691 | 35179 ft | 435 kts | 121° |
| 2026-05-01 12:45 | 54.30640 | 0.13905 | 35183 ft | 434 kts | 121° |
| 2026-05-01 12:46 | 54.27874 | 0.23105 | 35190 ft | 434 kts | 122° |
| 2026-05-01 12:46 | 54.25104 | 0.32288 | 35200 ft | 434 kts | 122° |
| 2026-05-01 12:47 | 54.22332 | 0.41460 | 35207 ft | 434 kts | 122° |
| 2026-05-01 12:47 | 54.19557 | 0.50606 | 35213 ft | 433 kts | 122° |
| 2026-05-01 12:48 | 54.16775 | 0.59721 | 35195 ft | 433 kts | 122° |
| 2026-05-01 12:48 | 54.13975 | 0.68839 | 35200 ft | 434 kts | 122° |
| 2026-05-01 12:49 | 54.11176 | 0.77952 | 35204 ft | 434 kts | 122° |
| 2026-05-01 12:49 | 54.08390 | 0.87004 | 35217 ft | 434 kts | 122° |
| 2026-05-01 12:50 | 54.05572 | 0.96096 | 35219 ft | 434 kts | 122° |
| 2026-05-01 12:50 | 54.02748 | 1.05170 | 35215 ft | 434 kts | 122° |
| 2026-05-01 12:51 | 53.99918 | 1.14241 | 35201 ft | 435 kts | 122° |
| 2026-05-01 12:52 | 53.95645 | 1.27851 | 35216 ft | 435 kts | 122° |
| 2026-05-01 12:52 | 53.91358 | 1.41441 | 35221 ft | 435 kts | 122° |
| 2026-05-01 12:53 | 53.87060 | 1.55005 | 35231 ft | 435 kts | 122° |
| 2026-05-01 12:54 | 53.84178 | 1.64021 | 35212 ft | 436 kts | 122° |
| 2026-05-01 12:54 | 53.79843 | 1.77583 | 35219 ft | 437 kts | 122° |
| 2026-05-01 12:55 | 53.75496 | 1.91073 | 35232 ft | 438 kts | 122° |
| 2026-05-01 12:56 | 53.72581 | 2.00094 | 35242 ft | 438 kts | 122° |
| 2026-05-01 12:56 | 53.69655 | 2.09107 | 35225 ft | 438 kts | 122° |
| 2026-05-01 12:57 | 53.66721 | 2.18117 | 35231 ft | 438 kts | 122° |
| 2026-05-01 12:57 | 53.62305 | 2.31607 | 35244 ft | 438 kts | 122° |
| 2026-05-01 12:58 | 53.59345 | 2.40606 | 35246 ft | 439 kts | 122° |
| 2026-05-01 12:59 | 53.54895 | 2.54054 | 35250 ft | 439 kts | 122° |
| 2026-05-01 12:59 | 53.50441 | 2.67496 | 35237 ft | 439 kts | 122° |
| 2026-05-01 13:00 | 53.45967 | 2.80874 | 35245 ft | 440 kts | 122° |
| 2026-05-01 13:01 | 53.41460 | 2.94305 | 35248 ft | 441 kts | 122° |
| 2026-05-01 13:02 | 53.36926 | 3.07697 | 35253 ft | 441 kts | 122° |
| 2026-05-01 13:07 | 52.98186 | 3.92715 | 35268 ft | 441 kts | 134° |
| 2026-05-01 13:07 | 52.96131 | 3.96499 | 35269 ft | 441 kts | 134° |
| 2026-05-01 13:08 | 52.92018 | 4.04057 | 35268 ft | 441 kts | 134° |
| 2026-05-01 13:08 | 52.87899 | 4.11613 | 35258 ft | 442 kts | 134° |
| 2026-05-01 13:09 | 52.84438 | 4.17926 | 35259 ft | 442 kts | 134° |
| 2026-05-01 13:09 | 52.80328 | 4.25401 | 35270 ft | 442 kts | 134° |
| 2026-05-01 13:10 | 52.76184 | 4.32928 | 35264 ft | 442 kts | 134° |
| 2026-05-01 13:10 | 52.72047 | 4.40431 | 35266 ft | 442 kts | 134° |
| 2026-05-01 13:11 | 52.67897 | 4.47939 | 35264 ft | 442 kts | 134° |
| 2026-05-01 13:11 | 52.63746 | 4.55414 | 35268 ft | 442 kts | 134° |
| 2026-05-01 13:12 | 52.59579 | 4.62875 | 35266 ft | 442 kts | 134° |
| 2026-05-01 13:12 | 52.55415 | 4.70328 | 35271 ft | 442 kts | 134° |
| 2026-05-01 13:13 | 52.51248 | 4.77763 | 35278 ft | 442 kts | 134° |
| 2026-05-01 13:13 | 52.47074 | 4.85182 | 35279 ft | 442 kts | 134° |
| 2026-05-01 13:14 | 52.42899 | 4.92599 | 35276 ft | 442 kts | 134° |
| 2026-05-01 13:14 | 52.38724 | 4.99993 | 35277 ft | 442 kts | 134° |
| 2026-05-01 13:15 | 52.34541 | 5.07355 | 35277 ft | 441 kts | 135° |
| 2026-05-01 13:15 | 52.30427 | 5.14714 | 35270 ft | 442 kts | 133° |
| 2026-05-01 13:16 | 52.26366 | 5.22340 | 35264 ft | 442 kts | 132° |
| 2026-05-01 13:16 | 52.22377 | 5.29869 | 35273 ft | 441 kts | 133° |
| 2026-05-01 13:17 | 52.14257 | 5.44870 | 35265 ft | 442 kts | 133° |
| 2026-05-01 13:18 | 52.08133 | 5.56106 | 35249 ft | 443 kts | 132° |
| 2026-05-01 13:18 | 52.04041 | 5.63604 | 35264 ft | 443 kts | 133° |
| 2026-05-01 13:19 | 51.99939 | 5.71096 | 35263 ft | 444 kts | 133° |
| 2026-05-01 13:20 | 51.93767 | 5.82325 | 35267 ft | 445 kts | 133° |
| 2026-05-01 13:20 | 51.89646 | 5.89796 | 35259 ft | 445 kts | 133° |
| 2026-05-01 13:21 | 51.83451 | 6.00980 | 35274 ft | 448 kts | 133° |
| 2026-05-01 13:21 | 51.79260 | 6.08519 | 35284 ft | 448 kts | 133° |
| 2026-05-01 13:22 | 51.75080 | 6.16004 | 35296 ft | 449 kts | 133° |
| 2026-05-01 13:22 | 51.70897 | 6.23480 | 35302 ft | 449 kts | 133° |
| 2026-05-01 13:23 | 51.66710 | 6.30943 | 35305 ft | 449 kts | 133° |
| 2026-05-01 13:23 | 51.62513 | 6.38413 | 35295 ft | 450 kts | 133° |
| 2026-05-01 13:24 | 51.58301 | 6.45875 | 35292 ft | 451 kts | 133° |
| 2026-05-01 13:25 | 51.51959 | 6.57065 | 35286 ft | 452 kts | 133° |
| 2026-05-01 13:25 | 51.47720 | 6.64521 | 35284 ft | 452 kts | 133° |
| 2026-05-01 13:26 | 51.43477 | 6.71973 | 35288 ft | 452 kts | 133° |
| 2026-05-01 13:26 | 51.39226 | 6.79398 | 35282 ft | 453 kts | 133° |
| 2026-05-01 13:27 | 51.34972 | 6.86798 | 35283 ft | 454 kts | 133° |
| 2026-05-01 13:27 | 51.28556 | 6.97944 | 35288 ft | 454 kts | 133° |
| 2026-05-01 13:28 | 51.22137 | 7.09054 | 35300 ft | 454 kts | 133° |
| 2026-05-01 13:29 | 51.13572 | 7.23781 | 35298 ft | 456 kts | 133° |
| 2026-05-01 13:31 | 51.00544 | 7.46014 | 35313 ft | 457 kts | 134° |
| 2026-05-01 13:32 | 50.89671 | 7.64438 | 35326 ft | 458 kts | 134° |
| 2026-05-01 13:33 | 50.78521 | 7.82493 | 35352 ft | 459 kts | 137° |
| 2026-05-01 13:34 | 50.69142 | 7.96094 | 35378 ft | 459 kts | 137° |
| 2026-05-01 13:35 | 50.62160 | 8.06427 | 35342 ft | 459 kts | 136° |
| 2026-05-01 13:36 | 50.55904 | 8.17845 | 35340 ft | 460 kts | 128° |
| 2026-05-01 13:36 | 50.49918 | 8.29603 | 35348 ft | 459 kts | 128° |
| 2026-05-01 13:37 | 50.45915 | 8.37427 | 35347 ft | 460 kts | 128° |
| 2026-05-01 13:37 | 50.41905 | 8.45253 | 35352 ft | 460 kts | 128° |
| 2026-05-01 13:38 | 50.35809 | 8.56845 | 35350 ft | 460 kts | 131° |
| 2026-05-01 13:39 | 50.31444 | 8.64182 | 35344 ft | 461 kts | 133° |
| 2026-05-01 13:39 | 50.26985 | 8.71385 | 35343 ft | 460 kts | 133° |
| 2026-05-01 13:40 | 50.22571 | 8.78626 | 35351 ft | 459 kts | 133° |
| 2026-05-01 13:40 | 50.18207 | 8.85912 | 35352 ft | 459 kts | 132° |
| 2026-05-01 13:41 | 50.13838 | 8.93196 | 35341 ft | 460 kts | 132° |
| 2026-05-01 13:41 | 50.09455 | 9.00452 | 35347 ft | 460 kts | 133° |
| 2026-05-01 13:42 | 50.05063 | 9.07686 | 35352 ft | 459 kts | 133° |
| 2026-05-01 13:42 | 50.00694 | 9.14857 | 35366 ft | 459 kts | 132° |
| 2026-05-01 13:43 | 49.96299 | 9.22068 | 35346 ft | 460 kts | 132° |
| 2026-05-01 13:43 | 49.91892 | 9.29266 | 35344 ft | 460 kts | 133° |
| 2026-05-01 13:44 | 49.87476 | 9.36452 | 35358 ft | 459 kts | 133° |
| 2026-05-01 13:44 | 49.83057 | 9.43622 | 35349 ft | 460 kts | 132° |
| 2026-05-01 13:45 | 49.78638 | 9.50787 | 35337 ft | 460 kts | 132° |
| 2026-05-01 13:45 | 49.74216 | 9.57949 | 35355 ft | 460 kts | 132° |
| 2026-05-01 13:46 | 49.69791 | 9.65083 | 35362 ft | 459 kts | 132° |
| 2026-05-01 13:46 | 49.65359 | 9.72198 | 35362 ft | 459 kts | 133° |
| 2026-05-01 13:47 | 49.60929 | 9.79294 | 35361 ft | 459 kts | 132° |
| 2026-05-01 13:47 | 49.56494 | 9.86380 | 35366 ft | 459 kts | 133° |
| 2026-05-01 13:48 | 49.52055 | 9.93441 | 35381 ft | 459 kts | 133° |
| 2026-05-01 13:48 | 49.47618 | 10.00488 | 35373 ft | 458 kts | 132° |
| 2026-05-01 13:49 | 49.43181 | 10.07524 | 35366 ft | 458 kts | 132° |
| 2026-05-01 13:49 | 49.38741 | 10.14545 | 35368 ft | 458 kts | 132° |
| 2026-05-01 13:50 | 49.34300 | 10.21552 | 35375 ft | 458 kts | 133° |
| 2026-05-01 13:50 | 49.29880 | 10.28486 | 35383 ft | 458 kts | 133° |
| 2026-05-01 13:51 | 49.25431 | 10.35454 | 35395 ft | 457 kts | 132° |
| 2026-05-01 13:51 | 49.20958 | 10.42372 | 35397 ft | 457 kts | 133° |
| 2026-05-01 13:52 | 49.16404 | 10.49129 | 35414 ft | 456 kts | 134° |
| 2026-05-01 13:52 | 49.11816 | 10.55844 | 35405 ft | 456 kts | 134° |
| 2026-05-01 13:53 | 49.08021 | 10.61421 | 35404 ft | 456 kts | 134° |
| 2026-05-01 13:53 | 49.01188 | 10.71515 | 35400 ft | 456 kts | 134° |
| 2026-05-01 13:54 | 48.96636 | 10.78219 | 35394 ft | 455 kts | 134° |
| 2026-05-01 13:54 | 48.92075 | 10.84911 | 35382 ft | 455 kts | 134° |
| 2026-05-01 13:55 | 48.87507 | 10.91586 | 35368 ft | 455 kts | 134° |
| 2026-05-01 13:55 | 48.82936 | 10.98241 | 35366 ft | 455 kts | 134° |
| 2026-05-01 13:56 | 48.78366 | 11.04887 | 35379 ft | 455 kts | 134° |
| 2026-05-01 13:56 | 48.73793 | 11.11522 | 35374 ft | 455 kts | 134° |
| 2026-05-01 13:57 | 48.69230 | 11.18133 | 35371 ft | 454 kts | 134° |
| 2026-05-01 13:57 | 48.64657 | 11.24737 | 35370 ft | 454 kts | 134° |
| 2026-05-01 13:58 | 48.60269 | 11.31587 | 35361 ft | 452 kts | 129° |
| 2026-05-01 13:58 | 48.56142 | 11.38669 | 35378 ft | 452 kts | 128° |
| 2026-05-01 13:59 | 48.51986 | 11.45793 | 35370 ft | 452 kts | 129° |
| 2026-05-01 13:59 | 48.47759 | 11.52803 | 35367 ft | 452 kts | 129° |
| 2026-05-01 14:00 | 48.43503 | 11.59768 | 35365 ft | 452 kts | 130° |
| 2026-05-01 14:00 | 48.39249 | 11.66734 | 35366 ft | 452 kts | 129° |
| 2026-05-01 14:01 | 48.35000 | 11.73710 | 35383 ft | 452 kts | 129° |
| 2026-05-01 14:01 | 48.30756 | 11.80671 | 35377 ft | 452 kts | 129° |
| 2026-05-01 14:02 | 48.26498 | 11.87628 | 35373 ft | 452 kts | 129° |
| 2026-05-01 14:02 | 48.22229 | 11.94563 | 35373 ft | 452 kts | 129° |
| 2026-05-01 14:03 | 48.17958 | 12.01485 | 35371 ft | 452 kts | 129° |
| 2026-05-01 14:03 | 48.13691 | 12.08397 | 35386 ft | 452 kts | 129° |
| 2026-05-01 14:04 | 48.09429 | 12.15301 | 35382 ft | 451 kts | 129° |
| 2026-05-01 14:04 | 48.05157 | 12.22184 | 35374 ft | 451 kts | 129° |
| 2026-05-01 14:05 | 48.00918 | 12.28991 | 35370 ft | 451 kts | 129° |
| 2026-05-01 14:05 | 47.96641 | 12.35843 | 35362 ft | 451 kts | 129° |
| 2026-05-01 14:06 | 47.92366 | 12.42681 | 35361 ft | 451 kts | 129° |
| 2026-05-01 14:06 | 47.88079 | 12.49503 | 35354 ft | 451 kts | 129° |
| 2026-05-01 14:07 | 47.83792 | 12.56310 | 35354 ft | 451 kts | 129° |
| 2026-05-01 14:08 | 47.77354 | 12.66521 | 35341 ft | 451 kts | 130° |
| 2026-05-01 14:08 | 47.73057 | 12.73306 | 35358 ft | 451 kts | 129° |
| 2026-05-01 14:09 | 47.68746 | 12.80093 | 35341 ft | 451 kts | 129° |
| 2026-05-01 14:09 | 47.64368 | 12.86771 | 35338 ft | 452 kts | 131° |
| 2026-05-01 14:10 | 47.59888 | 12.93315 | 35343 ft | 452 kts | 131° |
| 2026-05-01 14:10 | 47.55435 | 12.99805 | 35337 ft | 452 kts | 131° |
| 2026-05-01 14:11 | 47.50974 | 13.06360 | 35352 ft | 452 kts | 130° |
| 2026-05-01 14:11 | 47.44277 | 13.16197 | 35350 ft | 453 kts | 130° |
| 2026-05-01 14:12 | 47.39808 | 13.22732 | 35345 ft | 452 kts | 130° |
| 2026-05-01 14:12 | 47.35333 | 13.29265 | 35344 ft | 452 kts | 131° |
| 2026-05-01 14:13 | 47.31635 | 13.34707 | 35344 ft | 451 kts | 129° |
| 2026-05-01 14:13 | 47.26765 | 13.42770 | 35364 ft | 449 kts | 125° |
| 2026-05-01 14:14 | 47.22742 | 13.49799 | 35349 ft | 449 kts | 125° |
| 2026-05-01 14:14 | 47.18659 | 13.56763 | 35355 ft | 450 kts | 126° |
| 2026-05-01 14:15 | 47.14507 | 13.63662 | 35351 ft | 451 kts | 127° |
| 2026-05-01 14:15 | 47.10338 | 13.70532 | 35364 ft | 450 kts | 126° |
| 2026-05-01 14:16 | 47.06209 | 13.77369 | 35339 ft | 450 kts | 126° |
| 2026-05-01 14:16 | 47.02057 | 13.84256 | 35358 ft | 451 kts | 126° |
| 2026-05-01 14:17 | 46.97890 | 13.91148 | 35347 ft | 451 kts | 126° |
| 2026-05-01 14:17 | 46.93731 | 13.98011 | 35358 ft | 451 kts | 126° |
| 2026-05-01 14:18 | 46.89556 | 14.04866 | 35375 ft | 451 kts | 126° |
| 2026-05-01 14:18 | 46.86079 | 14.10558 | 35365 ft | 451 kts | 126° |
| 2026-05-01 14:19 | 46.81188 | 14.18547 | 35356 ft | 451 kts | 126° |
| 2026-05-01 14:19 | 46.77010 | 14.25364 | 35349 ft | 450 kts | 126° |
| 2026-05-01 14:20 | 46.70744 | 14.35560 | 35363 ft | 450 kts | 126° |
| 2026-05-01 14:21 | 46.66557 | 14.42351 | 35362 ft | 450 kts | 125° |
| 2026-05-01 14:21 | 46.62393 | 14.49081 | 35350 ft | 451 kts | 126° |
| 2026-05-01 14:22 | 46.56091 | 14.59224 | 35346 ft | 451 kts | 126° |
| 2026-05-01 14:22 | 46.51876 | 14.65980 | 35363 ft | 451 kts | 126° |
| 2026-05-01 14:23 | 46.47669 | 14.72725 | 35359 ft | 451 kts | 126° |
| 2026-05-01 14:23 | 46.43456 | 14.79462 | 35356 ft | 451 kts | 126° |
| 2026-05-01 14:24 | 46.39243 | 14.86182 | 35348 ft | 450 kts | 126° |
| 2026-05-01 14:24 | 46.35022 | 14.92900 | 35347 ft | 450 kts | 126° |
| 2026-05-01 14:25 | 46.30802 | 14.99597 | 35375 ft | 451 kts | 125° |
| 2026-05-01 14:25 | 46.26570 | 15.06286 | 35361 ft | 450 kts | 125° |
| 2026-05-01 14:26 | 46.20214 | 15.16305 | 35345 ft | 451 kts | 126° |
| 2026-05-01 14:27 | 46.15979 | 15.22974 | 35336 ft | 451 kts | 126° |
| 2026-05-01 14:27 | 46.11737 | 15.29624 | 35371 ft | 450 kts | 125° |
| 2026-05-01 14:28 | 46.05345 | 15.39559 | 35352 ft | 450 kts | 126° |
| 2026-05-01 14:28 | 46.01056 | 15.46127 | 35333 ft | 451 kts | 126° |
| 2026-05-01 14:29 | 45.96758 | 15.52694 | 35335 ft | 451 kts | 126° |
| 2026-05-01 14:30 | 45.88213 | 15.65765 | 35332 ft | 450 kts | 126° |
| 2026-05-01 14:31 | 45.81744 | 15.75603 | 35336 ft | 450 kts | 126° |
| 2026-05-01 14:31 | 45.77465 | 15.82090 | 35336 ft | 450 kts | 126° |
| 2026-05-01 14:32 | 45.73162 | 15.88597 | 35366 ft | 450 kts | 126° |
| 2026-05-01 14:32 | 45.68862 | 15.95102 | 35359 ft | 450 kts | 126° |
| 2026-05-01 14:33 | 45.64557 | 16.01587 | 35358 ft | 449 kts | 126° |
| 2026-05-01 14:33 | 45.60252 | 16.08062 | 35353 ft | 449 kts | 126° |
| 2026-05-01 14:34 | 45.55936 | 16.14532 | 35345 ft | 449 kts | 126° |
| 2026-05-01 14:34 | 45.51622 | 16.20977 | 35373 ft | 449 kts | 126° |
| 2026-05-01 14:35 | 45.47307 | 16.27415 | 35359 ft | 449 kts | 126° |
| 2026-05-01 14:35 | 45.42987 | 16.33849 | 35352 ft | 449 kts | 126° |
| 2026-05-01 14:36 | 45.38669 | 16.40267 | 35346 ft | 449 kts | 126° |
| 2026-05-01 14:36 | 45.34367 | 16.46648 | 35386 ft | 449 kts | 126° |
| 2026-05-01 14:37 | 45.30038 | 16.53033 | 35368 ft | 448 kts | 126° |
| 2026-05-01 14:37 | 45.25710 | 16.59410 | 35356 ft | 448 kts | 126° |
| 2026-05-01 14:38 | 45.21385 | 16.65768 | 35344 ft | 447 kts | 126° |
| 2026-05-01 14:38 | 45.16972 | 16.72023 | 35336 ft | 450 kts | 128° |
| 2026-05-01 14:39 | 45.12377 | 16.78069 | 35368 ft | 451 kts | 129° |
| 2026-05-01 14:39 | 45.07746 | 16.84057 | 35359 ft | 451 kts | 129° |
| 2026-05-01 14:40 | 45.03154 | 16.90085 | 35344 ft | 450 kts | 128° |
| 2026-05-01 14:40 | 44.99356 | 16.95110 | 35343 ft | 450 kts | 128° |
| 2026-05-01 14:41 | 44.94789 | 17.01137 | 35337 ft | 450 kts | 129° |
| 2026-05-01 14:41 | 44.90210 | 17.07162 | 35354 ft | 450 kts | 129° |
| 2026-05-01 14:42 | 44.85624 | 17.13172 | 35344 ft | 450 kts | 129° |
| 2026-05-01 14:42 | 44.81023 | 17.19174 | 35375 ft | 451 kts | 129° |
| 2026-05-01 14:42 | 44.78724 | 17.22175 | 35725 ft | 451 kts | 129° |
| 2026-05-01 14:43 | 44.76427 | 17.25171 | 36031 ft | 451 kts | 129° |
| 2026-05-01 14:43 | 44.74119 | 17.28178 | 36313 ft | 452 kts | 130° |
| 2026-05-01 14:43 | 44.71808 | 17.31191 | 36583 ft | 454 kts | 130° |
| 2026-05-01 14:43 | 44.69516 | 17.34176 | 36820 ft | 455 kts | 131° |
| 2026-05-01 14:44 | 44.67191 | 17.37199 | 37073 ft | 456 kts | 131° |
| 2026-05-01 14:44 | 44.62509 | 17.43261 | 37323 ft | 458 kts | 131° |
| 2026-05-01 14:44 | 44.60156 | 17.46298 | 37322 ft | 459 kts | 131° |
| 2026-05-01 14:45 | 44.53090 | 17.55399 | 37315 ft | 460 kts | 131° |
| 2026-05-01 14:46 | 44.48366 | 17.61489 | 37317 ft | 462 kts | 132° |
| 2026-05-01 14:46 | 44.41256 | 17.70601 | 37308 ft | 462 kts | 132° |
| 2026-05-01 14:47 | 44.36511 | 17.76670 | 37303 ft | 462 kts | 132° |
| 2026-05-01 14:48 | 44.29628 | 17.86092 | 37316 ft | 462 kts | 130° |
| 2026-05-01 14:48 | 44.22845 | 17.95653 | 37298 ft | 463 kts | 130° |
| 2026-05-01 14:49 | 44.13648 | 18.08251 | 37292 ft | 464 kts | 131° |
| 2026-05-01 14:50 | 44.04423 | 18.20850 | 37280 ft | 465 kts | 131° |
| 2026-05-01 14:51 | 43.97523 | 18.30267 | 37275 ft | 466 kts | 131° |
| 2026-05-01 14:52 | 43.90568 | 18.39707 | 37277 ft | 466 kts | 132° |
| 2026-05-01 14:53 | 43.83600 | 18.49135 | 37271 ft | 467 kts | 132° |
| 2026-05-01 14:53 | 43.78936 | 18.55420 | 37268 ft | 468 kts | 132° |
| 2026-05-01 14:54 | 43.74264 | 18.61703 | 37290 ft | 468 kts | 132° |
| 2026-05-01 14:54 | 43.69590 | 18.67991 | 37281 ft | 469 kts | 132° |
| 2026-05-01 14:55 | 43.64912 | 18.74265 | 37267 ft | 469 kts | 133° |
| 2026-05-01 14:55 | 43.60255 | 18.80486 | 37257 ft | 469 kts | 132° |
| 2026-05-01 14:56 | 43.55554 | 18.86754 | 37265 ft | 470 kts | 133° |
| 2026-05-01 14:56 | 43.50839 | 18.93006 | 37261 ft | 471 kts | 133° |
| 2026-05-01 14:57 | 43.46118 | 18.99273 | 37255 ft | 471 kts | 133° |
| 2026-05-01 14:57 | 43.39037 | 19.08653 | 37255 ft | 471 kts | 133° |
| 2026-05-01 14:58 | 43.34299 | 19.14902 | 37251 ft | 473 kts | 134° |
| 2026-05-01 14:58 | 43.29551 | 19.21162 | 37241 ft | 474 kts | 134° |
| 2026-05-01 14:59 | 43.24788 | 19.27436 | 37237 ft | 475 kts | 134° |
| 2026-05-01 14:59 | 43.20000 | 19.33704 | 37231 ft | 477 kts | 134° |
| 2026-05-01 15:00 | 43.12792 | 19.43125 | 37253 ft | 478 kts | 134° |
| 2026-05-01 15:01 | 43.07980 | 19.49397 | 37268 ft | 477 kts | 135° |
| 2026-05-01 15:01 | 43.03202 | 19.55602 | 37267 ft | 477 kts | 134° |
| 2026-05-01 15:02 | 42.98702 | 19.62215 | 37261 ft | 474 kts | 127° |
| 2026-05-01 15:02 | 42.94551 | 19.69206 | 37259 ft | 474 kts | 127° |
| 2026-05-01 15:03 | 42.90381 | 19.76168 | 37259 ft | 474 kts | 127° |
| 2026-05-01 15:03 | 42.86207 | 19.83125 | 37263 ft | 474 kts | 128° |
| 2026-05-01 15:04 | 42.82028 | 19.90087 | 37246 ft | 475 kts | 127° |
| 2026-05-01 15:04 | 42.77840 | 19.97054 | 37246 ft | 476 kts | 128° |
| 2026-05-01 15:05 | 42.73656 | 20.03989 | 37242 ft | 477 kts | 128° |
| 2026-05-01 15:05 | 42.69449 | 20.10950 | 37257 ft | 477 kts | 128° |
| 2026-05-01 15:06 | 42.65230 | 20.17926 | 37266 ft | 477 kts | 128° |
| 2026-05-01 15:06 | 42.61011 | 20.24876 | 37268 ft | 477 kts | 129° |
| 2026-05-01 15:07 | 42.56785 | 20.31808 | 37254 ft | 477 kts | 129° |
| 2026-05-01 15:07 | 42.52550 | 20.38751 | 37245 ft | 478 kts | 129° |
| 2026-05-01 15:08 | 42.48308 | 20.45683 | 37253 ft | 478 kts | 129° |
| 2026-05-01 15:08 | 42.44055 | 20.52612 | 37261 ft | 478 kts | 129° |
| 2026-05-01 15:09 | 42.39785 | 20.59541 | 37257 ft | 479 kts | 130° |
| 2026-05-01 15:09 | 42.35514 | 20.66468 | 37261 ft | 479 kts | 129° |
| 2026-05-01 15:10 | 42.31246 | 20.73396 | 37264 ft | 480 kts | 129° |
| 2026-05-01 15:10 | 42.24819 | 20.83780 | 37262 ft | 481 kts | 130° |
| 2026-05-01 15:11 | 42.18401 | 20.94107 | 37260 ft | 481 kts | 130° |
| 2026-05-01 15:12 | 42.14087 | 21.01012 | 37269 ft | 481 kts | 130° |
| 2026-05-01 15:12 | 42.09259 | 21.07191 | 37266 ft | 479 kts | 147° |
| 2026-05-01 15:12 | 42.06454 | 21.09609 | 37262 ft | 478 kts | 149° |
| 2026-05-01 15:14 | 41.92341 | 21.21512 | 37249 ft | 480 kts | 150° |
| 2026-05-01 15:14 | 41.83857 | 21.28643 | 37246 ft | 480 kts | 150° |
| 2026-05-01 15:15 | 41.72546 | 21.38110 | 37228 ft | 481 kts | 150° |
| 2026-05-01 15:16 | 41.61169 | 21.47593 | 37234 ft | 482 kts | 150° |
| 2026-05-01 15:18 | 41.46921 | 21.59418 | 37224 ft | 483 kts | 151° |
| 2026-05-01 15:19 | 41.35523 | 21.68813 | 37229 ft | 483 kts | 151° |
| 2026-05-01 15:19 | 41.26942 | 21.75886 | 37213 ft | 484 kts | 151° |
| 2026-05-01 15:20 | 41.18341 | 21.82935 | 37228 ft | 484 kts | 152° |
| 2026-05-01 15:21 | 41.12607 | 21.87621 | 37225 ft | 484 kts | 152° |
| 2026-05-01 15:21 | 41.06864 | 21.92313 | 37206 ft | 484 kts | 152° |
| 2026-05-01 15:22 | 40.98325 | 21.99490 | 37226 ft | 485 kts | 151° |
| 2026-05-01 15:22 | 40.92646 | 22.04308 | 37227 ft | 485 kts | 151° |
| 2026-05-01 15:23 | 40.86952 | 22.09096 | 37233 ft | 485 kts | 151° |
| 2026-05-01 15:23 | 40.81253 | 22.13854 | 37219 ft | 485 kts | 152° |
| 2026-05-01 15:24 | 40.75546 | 22.18615 | 37221 ft | 486 kts | 152° |
| 2026-05-01 15:24 | 40.69867 | 22.23336 | 37231 ft | 486 kts | 152° |
| 2026-05-01 15:25 | 40.64146 | 22.28094 | 37233 ft | 486 kts | 152° |
| 2026-05-01 15:25 | 40.58422 | 22.32847 | 37235 ft | 486 kts | 152° |
| 2026-05-01 15:26 | 40.52704 | 22.37587 | 37238 ft | 486 kts | 152° |
| 2026-05-01 15:26 | 40.46978 | 22.42329 | 37238 ft | 486 kts | 152° |
| 2026-05-01 15:27 | 40.41243 | 22.47053 | 37249 ft | 486 kts | 152° |
| 2026-05-01 15:28 | 40.32644 | 22.54123 | 37222 ft | 487 kts | 152° |
| 2026-05-01 15:28 | 40.26903 | 22.58846 | 37231 ft | 487 kts | 152° |
| 2026-05-01 15:29 | 40.18288 | 22.65900 | 37237 ft | 487 kts | 153° |
| 2026-05-01 15:30 | 40.07743 | 22.74514 | 37206 ft | 488 kts | 153° |
| 2026-05-01 15:31 | 39.90450 | 22.88528 | 37219 ft | 489 kts | 153° |
| 2026-05-01 15:32 | 39.78861 | 22.97900 | 37201 ft | 489 kts | 154° |
| 2026-05-01 15:34 | 39.61526 | 23.11843 | 37199 ft | 490 kts | 154° |